createdAt,value
2017-11-23T00:01:05.707Z,4.60
2017-11-23T00:03:39.316Z,5.23
2017-11-23T00:06:12.775Z,5.53
2017-11-23T00:08:47.327Z,4.80
2017-11-23T00:11:20.831Z,4.93
2017-11-23T00:13:54.593Z,4.57
2017-11-23T00:16:28.191Z,5.70
2017-11-23T00:19:01.844Z,4.97
2017-11-23T00:21:35.452Z,6.17
2017-11-23T00:24:08.931Z,6.17
2017-11-23T00:26:42.436Z,5.20
2017-11-23T00:29:16.030Z,6.23
2017-11-23T00:31:49.590Z,5.27
2017-11-23T00:34:23.231Z,6.23
2017-11-23T00:36:56.840Z,4.67
2017-11-23T00:39:30.437Z,5.40
2017-11-23T00:42:04.135Z,5.40
2017-11-23T00:44:37.735Z,5.10
2017-11-23T00:47:11.306Z,5.40
2017-11-23T00:49:45.503Z,4.57
2017-11-23T00:52:19.256Z,5.27
2017-11-23T00:54:52.720Z,4.10
2017-11-23T00:57:26.467Z,6.47
2017-11-23T00:59:59.955Z,5.13
2017-11-23T01:02:33.463Z,4.40
2017-11-23T01:05:07.069Z,5.13
2017-11-23T01:07:40.863Z,5.13
2017-11-23T01:10:14.419Z,4.80
2017-11-23T01:12:48.062Z,5.10
2017-11-23T01:15:21.672Z,5.20
2017-11-23T01:17:55.375Z,5.80
2017-11-23T01:20:28.967Z,4.67
2017-11-23T01:23:02.689Z,4.23
2017-11-23T01:25:36.867Z,4.73
2017-11-23T01:28:10.487Z,5.60
2017-11-23T01:30:44.198Z,4.27
2017-11-23T01:33:18.098Z,4.47
2017-11-23T01:35:51.699Z,5.27
2017-11-23T01:38:25.303Z,4.87
2017-11-23T01:40:59.011Z,3.90
2017-11-23T01:43:32.678Z,4.37
2017-11-23T01:46:06.309Z,4.57
2017-11-23T01:48:39.814Z,4.20
2017-11-23T01:51:13.406Z,4.80
2017-11-23T01:53:47.062Z,4.70
2017-11-23T01:56:20.860Z,5.47
2017-11-23T01:58:54.519Z,4.27
2017-11-23T02:01:29.038Z,3.60
2017-11-23T02:04:02.499Z,4.50
2017-11-23T02:06:36.238Z,4.30
2017-11-23T02:09:09.807Z,3.83
2017-11-23T02:11:43.448Z,4.90
2017-11-23T02:14:17.926Z,4.43
2017-11-23T02:16:51.635Z,4.27
2017-11-23T02:19:25.147Z,4.10
2017-11-23T02:21:58.866Z,4.60
2017-11-23T02:24:32.426Z,4.37
2017-11-23T02:27:06.127Z,4.67
2017-11-23T02:29:39.889Z,4.90
2017-11-23T02:32:13.536Z,5.47
2017-11-23T02:34:47.046Z,4.90
2017-11-23T02:37:20.614Z,5.50
2017-11-23T02:39:54.279Z,5.77
2017-11-23T02:42:27.883Z,5.60
2017-11-23T02:45:01.584Z,5.40
2017-11-23T02:47:35.971Z,4.90
2017-11-23T02:50:09.573Z,4.77
2017-11-23T02:52:43.159Z,4.90
2017-11-23T02:55:16.916Z,5.00
2017-11-23T02:57:50.520Z,4.37
2017-11-23T03:00:24.051Z,4.23
2017-11-23T03:02:57.824Z,4.83
2017-11-23T03:05:31.992Z,6.33
2017-11-23T03:08:05.508Z,6.43
2017-11-23T03:10:39.143Z,4.80
2017-11-23T03:13:12.948Z,5.53
2017-11-23T03:15:46.861Z,4.17
2017-11-23T03:18:20.519Z,4.20
2017-11-23T03:20:54.236Z,4.87
2017-11-23T03:23:28.676Z,5.00
2017-11-23T03:26:02.118Z,4.60
2017-11-23T03:28:35.874Z,5.13
2017-11-23T03:31:09.481Z,5.00
2017-11-23T03:33:43.891Z,5.10
2017-11-23T03:36:17.584Z,4.80
2017-11-23T03:38:51.095Z,6.87
2017-11-23T03:41:24.703Z,4.60
2017-11-23T03:43:58.294Z,4.43
2017-11-23T03:46:31.848Z,4.97
2017-11-23T03:49:06.378Z,4.30
2017-11-23T03:51:39.978Z,4.63
2017-11-23T03:54:14.402Z,4.60
2017-11-23T03:56:48.739Z,4.17
2017-11-23T03:59:23.031Z,4.57
2017-11-23T04:01:56.638Z,5.13
2017-11-23T04:04:30.178Z,4.20
2017-11-23T04:07:03.647Z,4.40
2017-11-23T04:09:37.986Z,4.20
2017-11-23T04:12:11.694Z,4.83
2017-11-23T04:14:45.295Z,4.87
2017-11-23T04:17:18.895Z,5.20
2017-11-23T04:19:52.411Z,4.83
2017-11-23T04:22:25.904Z,3.80
2017-11-23T04:24:59.813Z,4.53
2017-11-23T04:27:34.338Z,4.00
2017-11-23T04:30:07.983Z,4.80
2017-11-23T04:32:41.727Z,4.93
2017-11-23T04:35:15.295Z,5.10
2017-11-23T04:37:48.942Z,4.70
2017-11-23T04:40:22.531Z,4.73
2017-11-23T04:42:56.100Z,5.30
2017-11-23T04:45:29.745Z,4.90
2017-11-23T04:48:03.338Z,4.60
2017-11-23T04:50:36.815Z,5.13
2017-11-23T04:53:10.387Z,4.97
2017-11-23T04:55:44.954Z,5.77
2017-11-23T04:58:18.576Z,4.57
2017-11-23T05:00:52.164Z,5.23
2017-11-23T05:03:25.827Z,5.23
2017-11-23T05:05:59.783Z,5.07
2017-11-23T05:08:33.488Z,4.93
2017-11-23T05:11:07.163Z,4.83
2017-11-23T05:13:40.990Z,4.90
2017-11-23T05:16:14.588Z,4.90
2017-11-23T05:18:48.193Z,5.30
2017-11-23T05:21:21.725Z,4.80
2017-11-23T05:23:56.620Z,4.80
2017-11-23T05:26:30.267Z,4.63
2017-11-23T05:29:03.859Z,5.10
2017-11-23T05:31:37.515Z,5.47
2017-11-23T05:34:11.014Z,5.10
2017-11-23T05:36:44.574Z,5.50
2017-11-23T05:39:18.170Z,4.57
2017-11-23T05:41:52.125Z,5.10
2017-11-23T05:44:25.745Z,4.77
2017-11-23T05:46:59.418Z,4.40
2017-11-23T05:49:33.083Z,4.87
2017-11-23T05:52:06.735Z,4.93
2017-11-23T05:54:40.334Z,5.10
2017-11-23T05:57:14.106Z,5.50
2017-11-23T05:59:47.748Z,4.87
2017-11-23T06:02:21.219Z,4.40
2017-11-23T06:04:54.848Z,4.63
2017-11-23T06:07:28.452Z,4.73
2017-11-23T06:10:02.755Z,4.63
2017-11-23T06:12:36.775Z,4.10
2017-11-23T06:15:10.470Z,4.40
2017-11-23T06:17:44.034Z,4.77
2017-11-23T06:20:17.629Z,4.40
2017-11-23T06:22:52.159Z,4.17
2017-11-23T06:25:25.794Z,4.47
2017-11-23T06:27:59.384Z,4.87
2017-11-23T06:30:32.891Z,4.50
2017-11-23T06:33:07.295Z,4.20
2017-11-23T06:35:40.863Z,4.10
2017-11-23T06:38:14.519Z,4.47
2017-11-23T06:40:47.952Z,4.20
2017-11-23T06:43:21.612Z,3.83
2017-11-23T06:45:55.382Z,4.13
2017-11-23T06:48:28.981Z,4.50
2017-11-23T06:51:02.522Z,4.20
2017-11-23T06:53:35.992Z,4.43
2017-11-23T06:56:10.287Z,3.90
2017-11-23T06:58:43.939Z,4.70
2017-11-23T07:01:17.854Z,4.10
2017-11-23T07:03:52.267Z,4.90
2017-11-23T07:06:25.764Z,4.03
2017-11-23T07:08:59.463Z,4.00
2017-11-23T07:11:33.125Z,3.83
2017-11-23T07:14:06.620Z,5.37
2017-11-23T07:16:40.085Z,4.60
2017-11-23T07:19:13.667Z,4.20
2017-11-23T07:21:48.707Z,4.00
2017-11-23T07:24:22.204Z,4.33
2017-11-23T07:26:55.799Z,4.27
2017-11-23T07:29:29.502Z,4.77
2017-11-23T07:32:03.102Z,4.80
2017-11-23T07:34:36.707Z,4.87
2017-11-23T07:37:10.408Z,4.60
2017-11-23T07:39:44.117Z,4.50
2017-11-23T07:42:18.436Z,4.40
2017-11-23T07:44:52.131Z,5.30
2017-11-23T07:47:26.551Z,4.97
2017-11-23T07:50:00.110Z,4.77
2017-11-23T07:52:34.584Z,5.53
2017-11-23T07:55:08.051Z,3.83
2017-11-23T07:57:41.588Z,4.30
2017-11-23T08:00:15.320Z,4.93
2017-11-23T08:02:48.844Z,3.77
2017-11-23T08:05:22.327Z,5.63
2017-11-23T08:07:55.987Z,4.23
2017-11-23T08:10:29.779Z,4.90
2017-11-23T08:13:03.388Z,4.10
2017-11-23T08:15:36.983Z,4.47
2017-11-23T08:18:11.487Z,4.50
2017-11-23T08:20:46.243Z,4.43
2017-11-23T08:23:19.840Z,4.60
2017-11-23T08:25:53.431Z,4.47
2017-11-23T08:28:27.044Z,5.47
2017-11-23T08:31:00.621Z,5.40
2017-11-23T08:33:34.244Z,4.13
2017-11-23T08:36:07.834Z,4.23
2017-11-23T08:38:41.448Z,4.97
2017-11-23T08:41:14.927Z,4.10
2017-11-23T08:43:48.503Z,4.37
2017-11-23T08:46:22.338Z,5.50
2017-11-23T08:48:55.884Z,4.17
2017-11-23T08:51:30.236Z,4.60
2017-11-23T08:54:03.869Z,4.10
2017-11-23T08:56:37.563Z,4.00
2017-11-23T08:59:11.171Z,4.60
2017-11-23T09:01:46.811Z,4.30
2017-11-23T09:04:20.515Z,4.47
2017-11-23T09:06:54.104Z,5.50
2017-11-23T09:09:27.833Z,5.93
2017-11-23T09:12:03.263Z,6.10
2017-11-23T09:14:37.600Z,5.03
2017-11-23T09:17:11.032Z,3.83
2017-11-23T09:19:44.570Z,3.83
2017-11-23T09:22:18.178Z,4.70
2017-11-23T09:24:51.788Z,4.50
2017-11-23T09:27:25.445Z,3.80
2017-11-23T09:29:59.040Z,4.40
2017-11-23T09:32:32.899Z,4.57
2017-11-23T09:35:07.183Z,4.00
2017-11-23T09:37:40.919Z,4.30
2017-11-23T09:40:14.724Z,4.10
2017-11-23T09:42:48.315Z,4.00
2017-11-23T09:45:21.927Z,4.53
2017-11-23T09:47:55.527Z,4.30
2017-11-23T09:50:29.107Z,3.70
2017-11-23T09:53:03.030Z,3.73
2017-11-23T09:55:36.637Z,3.90
2017-11-23T09:58:10.140Z,4.10
2017-11-23T10:00:43.850Z,3.40
2017-11-23T10:03:18.868Z,4.17
2017-11-23T10:05:52.371Z,3.60
2017-11-23T10:08:25.962Z,3.73
2017-11-23T10:10:59.532Z,3.50
2017-11-23T10:13:33.136Z,3.50
2017-11-23T10:16:06.776Z,3.97
2017-11-23T10:18:40.348Z,4.00
2017-11-23T10:21:14.084Z,3.93
2017-11-23T10:23:47.680Z,3.30
2017-11-23T10:26:21.187Z,3.97
2017-11-23T10:28:54.975Z,3.40
2017-11-23T10:31:28.995Z,3.20
2017-11-23T10:34:03.406Z,3.87
2017-11-23T10:36:36.912Z,3.90
2017-11-23T10:39:10.616Z,3.40
2017-11-23T10:41:44.895Z,3.10
2017-11-23T10:44:18.704Z,3.73
2017-11-23T10:46:52.442Z,3.50
2017-11-23T10:49:26.012Z,3.20
2017-11-23T10:52:00.052Z,3.53
2017-11-23T10:54:33.757Z,3.80
2017-11-23T10:57:07.329Z,3.50
2017-11-23T10:59:40.928Z,3.90
2017-11-23T11:02:15.071Z,3.80
2017-11-23T11:04:49.487Z,3.50
2017-11-23T11:07:24.114Z,3.30
2017-11-23T11:09:58.543Z,3.70
2017-11-23T11:12:32.214Z,3.57
2017-11-23T11:15:06.537Z,2.93
2017-11-23T11:17:40.095Z,3.47
2017-11-23T11:20:13.755Z,3.40
2017-11-23T11:22:48.080Z,3.50
2017-11-23T11:25:21.666Z,2.73
2017-11-23T11:27:55.159Z,3.03
2017-11-23T11:30:28.888Z,3.33
2017-11-23T11:33:03.291Z,3.43
2017-11-23T11:35:38.239Z,3.37
2017-11-23T11:38:11.927Z,3.20
2017-11-23T11:40:45.531Z,3.03
2017-11-23T11:43:19.959Z,2.67
2017-11-23T11:45:53.547Z,3.17
2017-11-23T11:48:27.118Z,3.47
2017-11-23T11:51:00.702Z,3.80
2017-11-23T11:53:34.337Z,3.70
2017-11-23T11:56:07.963Z,2.63
2017-11-23T11:58:41.665Z,3.90
2017-11-23T12:01:15.468Z,3.20
2017-11-23T12:03:49.148Z,3.23
2017-11-23T12:06:22.771Z,3.30
2017-11-23T12:08:56.965Z,3.60
2017-11-23T12:11:30.796Z,3.03
2017-11-23T12:14:16.377Z,3.30
2017-11-23T12:20:07.413Z,3.67
2017-11-23T12:23:05.481Z,3.37
2017-11-23T12:25:51.155Z,3.47
2017-11-23T12:28:36.744Z,3.97
2017-11-23T12:31:10.343Z,3.50
2017-11-23T12:33:43.798Z,3.10
2017-11-23T12:36:17.435Z,3.47
2017-11-23T12:38:51.239Z,3.90
2017-11-23T12:41:24.943Z,3.40
2017-11-23T12:43:59.244Z,3.40
2017-11-23T12:46:33.170Z,3.27
2017-11-23T12:49:07.078Z,3.77
2017-11-23T12:51:40.678Z,3.27
2017-11-23T12:54:14.285Z,3.70
2017-11-23T12:56:48.803Z,3.00
2017-11-23T12:59:22.303Z,3.53
2017-11-23T13:01:55.854Z,3.57
2017-11-23T13:04:29.612Z,3.63
2017-11-23T13:07:03.208Z,3.97
2017-11-23T13:09:36.822Z,3.87
2017-11-23T13:12:10.464Z,3.93
2017-11-23T13:14:44.222Z,3.53
2017-11-23T13:17:17.715Z,3.50
2017-11-23T13:19:51.303Z,3.63
2017-11-23T13:22:25.730Z,4.37
2017-11-23T13:25:00.585Z,3.50
2017-11-23T13:27:34.239Z,3.50
2017-11-23T13:30:07.844Z,3.40
2017-11-23T13:32:41.362Z,2.40
2017-11-23T13:35:15.694Z,2.77
2017-11-23T13:37:49.280Z,3.43
2017-11-23T13:40:22.995Z,3.03
2017-11-23T13:42:57.203Z,3.00
2017-11-23T13:45:30.798Z,3.70
2017-11-23T13:48:05.218Z,3.40
2017-11-23T13:50:38.832Z,3.03
2017-11-23T13:53:12.611Z,2.70
2017-11-23T13:55:46.214Z,2.50
2017-11-23T13:58:20.035Z,2.87
2017-11-23T14:00:53.608Z,2.60
2017-11-23T14:03:27.349Z,2.57
2017-11-23T14:06:00.878Z,2.70
2017-11-23T14:08:34.643Z,2.90
2017-11-23T14:11:08.447Z,2.60
2017-11-23T14:13:42.046Z,3.00
2017-11-23T14:16:16.467Z,3.07
2017-11-23T14:18:50.083Z,2.70
2017-11-23T14:21:23.670Z,2.43
2017-11-23T14:23:57.279Z,2.63
2017-11-23T14:26:30.875Z,3.37
2017-11-23T14:29:04.446Z,2.87
2017-11-23T14:31:38.280Z,2.90
2017-11-23T14:34:11.879Z,3.43
2017-11-23T14:36:45.447Z,2.73
2017-11-23T14:39:18.989Z,3.07
2017-11-23T14:41:52.807Z,2.83
2017-11-23T14:44:26.489Z,3.27
2017-11-23T14:47:00.200Z,3.10
2017-11-23T14:49:33.756Z,2.80
2017-11-23T14:52:07.960Z,3.10
2017-11-23T14:54:41.820Z,2.77
2017-11-23T14:57:15.414Z,3.50
2017-11-23T14:59:48.868Z,3.80
2017-11-23T15:02:23.231Z,3.57
2017-11-23T15:04:57.555Z,3.27
2017-11-23T15:07:31.155Z,4.20
2017-11-23T15:10:04.814Z,4.10
2017-11-23T15:12:38.555Z,4.03
2017-11-23T15:15:12.067Z,3.10
2017-11-23T15:17:45.860Z,3.40
2017-11-23T15:20:19.459Z,4.00
2017-11-23T15:22:52.969Z,3.00
2017-11-23T15:25:26.579Z,3.90
2017-11-23T15:28:00.172Z,3.40
2017-11-23T15:30:33.812Z,3.47
2017-11-23T15:33:07.363Z,2.70
2017-11-23T15:35:41.167Z,2.97
2017-11-23T15:38:14.874Z,3.30
2017-11-23T15:40:48.827Z,2.60
2017-11-23T15:43:22.434Z,3.20
2017-11-23T15:45:56.126Z,2.97
2017-11-23T15:48:30.586Z,2.53
2017-11-23T15:51:04.158Z,2.43
2017-11-23T15:53:38.704Z,2.53
2017-11-23T15:56:12.192Z,1.90
2017-11-23T15:58:45.787Z,2.50
2017-11-23T16:01:19.531Z,2.93
2017-11-23T16:03:53.096Z,2.47
2017-11-23T16:06:26.739Z,2.40
2017-11-23T16:09:00.403Z,2.33
2017-11-23T16:11:34.083Z,2.00
2017-11-23T16:14:07.638Z,2.50
2017-11-23T16:16:41.674Z,2.50
2017-11-23T16:19:15.414Z,4.13
2017-11-23T16:21:49.027Z,2.10
2017-11-23T16:24:22.755Z,2.33
2017-11-23T16:26:56.336Z,2.00
2017-11-23T16:29:29.923Z,2.40
2017-11-23T16:32:03.440Z,3.20
2017-11-23T16:34:37.020Z,3.10
2017-11-23T16:37:10.684Z,2.63
2017-11-23T16:39:44.463Z,2.60
2017-11-23T16:42:18.434Z,3.73
2017-11-23T16:45:06.931Z,3.50
2017-11-23T16:47:51.348Z,2.80
2017-11-23T16:50:30.894Z,2.40
2017-11-23T16:53:10.270Z,2.57
2017-11-23T16:55:49.496Z,3.60
2017-11-23T16:58:26.881Z,3.57
2017-11-23T17:01:06.538Z,3.17
2017-11-23T17:03:46.086Z,3.40
2017-11-23T17:06:25.354Z,3.17
2017-11-23T17:09:04.724Z,3.33
2017-11-23T17:11:44.735Z,3.73
2017-11-23T17:17:49.033Z,3.73
2017-11-23T17:20:22.836Z,3.30
2017-11-23T17:22:56.644Z,3.80
2017-11-23T17:25:30.287Z,3.80
2017-11-23T17:28:03.843Z,3.97
2017-11-23T17:30:37.444Z,3.60
2017-11-23T17:33:11.251Z,4.53
2017-11-23T17:35:44.853Z,4.57
2017-11-23T17:38:18.334Z,4.00
2017-11-23T17:40:51.858Z,5.37
2017-11-23T17:43:25.514Z,12.00
2017-11-23T17:45:59.823Z,18.40
2017-11-23T17:48:33.508Z,14.47
2017-11-23T17:51:07.013Z,6.00
2017-11-23T17:53:40.545Z,3.80
2017-11-23T17:56:14.076Z,3.50
2017-11-23T17:58:47.535Z,2.97
2017-11-23T18:01:21.066Z,3.40
2017-11-23T18:03:54.599Z,3.90
2017-11-23T18:06:28.120Z,3.13
2017-11-23T18:09:01.584Z,3.73
2017-11-23T18:11:35.180Z,3.00
2017-11-23T18:14:08.634Z,3.10
2017-11-23T18:16:42.852Z,2.63
2017-11-23T18:19:17.123Z,3.13
2017-11-23T18:21:50.563Z,3.00
2017-11-23T18:24:24.076Z,3.67
2017-11-23T18:26:57.607Z,2.77
2017-11-23T18:29:31.872Z,2.60
2017-11-23T18:32:05.409Z,2.90
2017-11-23T18:34:39.670Z,3.67
2017-11-23T18:37:13.174Z,3.30
2017-11-23T18:39:46.823Z,2.60
2017-11-23T18:42:21.112Z,3.23
2017-11-23T18:44:55.314Z,3.40
2017-11-23T18:47:29.736Z,3.07
2017-11-23T18:50:03.964Z,3.40
2017-11-23T18:52:38.180Z,2.80
2017-11-23T18:55:11.696Z,2.53
2017-11-23T18:57:45.140Z,3.10
2017-11-23T19:00:19.490Z,3.35
2017-11-23T19:02:52.943Z,2.90
2017-11-23T19:05:26.456Z,3.20
2017-11-23T19:07:59.983Z,3.10
2017-11-23T19:10:34.299Z,3.67
2017-11-23T19:13:08.650Z,2.97
2017-11-23T19:15:42.153Z,3.30
2017-11-23T19:18:15.710Z,3.80
2017-11-23T19:20:49.228Z,4.00
2017-11-23T19:23:23.642Z,3.00
2017-11-23T19:25:57.843Z,2.83
2017-11-23T19:28:31.379Z,3.40
2017-11-23T19:31:04.840Z,2.70
2017-11-23T19:33:38.381Z,3.03
2017-11-23T19:36:11.955Z,3.20
2017-11-23T19:38:45.473Z,3.40
2017-11-23T19:41:19.004Z,2.80
2017-11-23T19:43:52.448Z,3.37
2017-11-23T19:46:26.843Z,3.90
2017-11-23T19:49:00.432Z,3.10
2017-11-23T19:51:33.938Z,3.40
2017-11-23T19:54:07.387Z,2.90
2017-11-23T19:56:40.833Z,3.23
2017-11-23T19:59:14.363Z,2.90
2017-11-23T20:01:47.808Z,2.97
2017-11-23T20:04:21.323Z,3.50
2017-11-23T20:06:54.963Z,2.90
2017-11-23T20:09:29.384Z,3.07
2017-11-23T20:12:03.593Z,3.63
2017-11-23T20:14:37.103Z,3.50
2017-11-23T20:17:11.386Z,4.83
2017-11-23T20:19:44.915Z,4.53
2017-11-23T20:22:18.475Z,3.70
2017-11-23T20:24:52.706Z,3.10
2017-11-23T20:27:27.040Z,3.40
2017-11-23T20:30:01.245Z,2.80
2017-11-23T20:32:34.774Z,3.17
2017-11-23T20:35:08.212Z,3.33
2017-11-23T20:37:41.664Z,2.87
2017-11-23T20:40:15.191Z,3.13
2017-11-23T20:42:49.450Z,3.90
2017-11-23T20:45:22.988Z,3.90
2017-11-23T20:47:57.271Z,9.47
2017-11-23T20:50:31.471Z,7.13
2017-11-23T20:53:05.018Z,11.47
2017-11-23T20:55:39.317Z,10.27
2017-11-23T20:58:13.531Z,7.67
2017-11-23T21:00:47.734Z,4.00
2017-11-23T21:03:21.268Z,3.73
2017-11-23T21:05:54.904Z,3.90
2017-11-23T21:08:28.447Z,3.77
2017-11-23T21:11:02.040Z,3.90
2017-11-23T21:13:35.552Z,3.53
2017-11-23T21:16:09.072Z,3.90
2017-11-23T21:18:42.669Z,3.33
2017-11-23T21:21:16.944Z,3.67
2017-11-23T21:23:50.470Z,4.73
2017-11-23T21:26:24.132Z,4.00
2017-11-23T21:28:57.575Z,3.90
2017-11-23T21:31:31.117Z,4.10
2017-11-23T21:34:04.803Z,3.50
2017-11-23T21:36:38.494Z,4.03
2017-11-23T21:39:12.333Z,3.80
2017-11-23T21:41:46.803Z,4.10
2017-11-23T21:44:21.402Z,3.97
2017-11-23T21:46:55.113Z,4.00
2017-11-23T21:49:28.800Z,3.20
2017-11-23T21:52:02.516Z,3.73
2017-11-23T21:54:36.221Z,3.90
2017-11-23T21:57:10.008Z,3.90
2017-11-23T21:59:43.705Z,4.27
2017-11-23T22:02:17.652Z,4.27
2017-11-23T22:04:51.232Z,3.67
2017-11-23T22:07:24.802Z,3.13
2017-11-23T22:09:58.459Z,5.20
2017-11-23T22:12:32.002Z,4.33
2017-11-23T22:15:05.520Z,3.73
2017-11-23T22:17:39.023Z,3.67
2017-11-23T22:20:12.553Z,4.27
2017-11-23T22:22:46.103Z,3.90
2017-11-23T22:25:19.757Z,3.83
2017-11-23T22:27:53.261Z,4.40
2017-11-23T22:30:27.916Z,4.53
2017-11-23T22:33:01.622Z,7.62
2017-11-23T22:35:35.597Z,9.37
2017-11-23T22:38:10.000Z,7.27
2017-11-23T22:40:43.480Z,9.70
2017-11-23T22:43:17.098Z,24.13
2017-11-23T22:45:51.303Z,17.17
2017-11-23T22:48:25.135Z,16.17
2017-11-23T22:50:58.631Z,5.83
2017-11-23T22:53:33.011Z,5.40
2017-11-23T22:56:06.766Z,4.90
2017-11-23T22:58:40.326Z,4.63
2017-11-23T23:01:14.744Z,5.20
2017-11-23T23:03:48.275Z,4.60
2017-11-23T23:06:21.771Z,4.27
2017-11-23T23:08:55.283Z,4.30
2017-11-23T23:11:28.983Z,4.53
2017-11-23T23:14:02.585Z,5.00
2017-11-23T23:16:36.175Z,4.80
2017-11-23T23:19:09.899Z,5.30
2017-11-23T23:21:43.680Z,4.80
2017-11-23T23:24:17.396Z,4.90
2017-11-23T23:26:50.896Z,4.40
2017-11-23T23:29:24.701Z,4.77
2017-11-23T23:31:58.262Z,3.97
2017-11-23T23:34:32.264Z,4.20
2017-11-23T23:37:05.915Z,4.47
2017-11-23T23:39:39.503Z,4.70
2017-11-23T23:42:13.005Z,4.23
2017-11-23T23:44:46.563Z,4.33
2017-11-23T23:47:20.216Z,4.23
2017-11-23T23:49:53.905Z,4.23
2017-11-23T23:52:27.710Z,4.33
2017-11-23T23:55:01.210Z,4.53
2017-11-23T23:57:34.732Z,4.97
